sensor_id;sensor_type;location;lat;lon;timestamp;P1;durP1;ratioP1;P2;durP2;ratioP2
50128;SDS011;36026;45.478;9.224;2023-02-27T00:02:33;5.73;;;3.90;;
50128;SDS011;36026;45.478;9.224;2023-02-27T00:05:35;5.68;;;3.38;;
50128;SDS011;36026;45.478;9.224;2023-02-27T00:08:40;5.90;;;3.38;;
50128;SDS011;36026;45.478;9.224;2023-02-27T00:11:44;3.83;;;3.05;;
50128;SDS011;36026;45.478;9.224;2023-02-27T00:18:08;4.18;;;2.70;;
50128;SDS011;36026;45.478;9.224;2023-02-27T00:21:10;4.13;;;2.58;;
50128;SDS011;36026;45.478;9.224;2023-02-27T00:24:18;3.67;;;2.20;;
50128;SDS011;36026;45.478;9.224;2023-02-27T00:27:21;5.07;;;2.70;;
50128;SDS011;36026;45.478;9.224;2023-02-27T00:30:30;3.38;;;1.90;;
50128;SDS011;36026;45.478;9.224;2023-02-27T00:33:32;11.07;;;2.65;;
50128;SDS011;36026;45.478;9.224;2023-02-27T00:36:34;3.10;;;2.15;;
50128;SDS011;36026;45.478;9.224;2023-02-27T00:39:36;3.53;;;2.35;;
50128;SDS011;36026;45.478;9.224;2023-02-27T00:42:38;3.38;;;2.65;;
50128;SDS011;36026;45.478;9.224;2023-02-27T00:45:42;2.78;;;2.10;;
50128;SDS011;36026;45.478;9.224;2023-02-27T00:48:46;6.50;;;2.20;;
50128;SDS011;36026;45.478;9.224;2023-02-27T00:51:48;2.60;;;2.08;;
50128;SDS011;36026;45.478;9.224;2023-02-27T00:54:52;3.25;;;2.20;;
50128;SDS011;36026;45.478;9.224;2023-02-27T00:57:54;3.22;;;2.20;;
50128;SDS011;36026;45.478;9.224;2023-02-27T01:00:59;2.78;;;1.77;;
50128;SDS011;36026;45.478;9.224;2023-02-27T01:04:01;3.75;;;1.80;;
50128;SDS011;36026;45.478;9.224;2023-02-27T01:07:03;3.33;;;1.90;;
50128;SDS011;36026;45.478;9.224;2023-02-27T01:10:05;3.70;;;2.13;;
50128;SDS011;36026;45.478;9.224;2023-02-27T01:17:07;3.10;;;1.63;;
50128;SDS011;36026;45.478;9.224;2023-02-27T01:20:09;5.10;;;1.75;;
50128;SDS011;36026;45.478;9.224;2023-02-27T01:23:17;3.63;;;1.95;;
50128;SDS011;36026;45.478;9.224;2023-02-27T01:26:19;3.05;;;1.80;;
50128;SDS011;36026;45.478;9.224;2023-02-27T01:29:21;2.25;;;1.75;;
50128;SDS011;36026;45.478;9.224;2023-02-27T01:32:25;2.75;;;1.83;;
50128;SDS011;36026;45.478;9.224;2023-02-27T01:35:30;3.40;;;1.92;;
50128;SDS011;36026;45.478;9.224;2023-02-27T01:38:32;2.38;;;1.90;;
50128;SDS011;36026;45.478;9.224;2023-02-27T01:41:34;3.13;;;1.90;;
50128;SDS011;36026;45.478;9.224;2023-02-27T01:44:57;2.65;;;2.13;;
50128;SDS011;36026;45.478;9.224;2023-02-27T01:48:05;3.00;;;1.80;;
50128;SDS011;36026;45.478;9.224;2023-02-27T01:51:12;3.88;;;2.00;;
50128;SDS011;36026;45.478;9.224;2023-02-27T01:54:20;3.28;;;1.90;;
50128;SDS011;36026;45.478;9.224;2023-02-27T01:57:23;2.72;;;2.05;;
50128;SDS011;36026;45.478;9.224;2023-02-27T02:00:27;3.03;;;1.85;;
50128;SDS011;36026;45.478;9.224;2023-02-27T02:03:32;4.43;;;2.40;;
50128;SDS011;36026;45.478;9.224;2023-02-27T02:06:53;4.03;;;2.17;;
50128;SDS011;36026;45.478;9.224;2023-02-27T02:09:58;2.40;;;1.92;;
50128;SDS011;36026;45.478;9.224;2023-02-27T02:13:00;2.92;;;2.28;;
50128;SDS011;36026;45.478;9.224;2023-02-27T02:16:06;2.20;;;1.67;;
50128;SDS011;36026;45.478;9.224;2023-02-27T02:23:09;3.53;;;2.43;;
50128;SDS011;36026;45.478;9.224;2023-02-27T02:30:40;2.97;;;2.05;;
50128;SDS011;36026;45.478;9.224;2023-02-27T02:41:04;3.40;;;2.40;;
50128;SDS011;36026;45.478;9.224;2023-02-27T02:44:12;4.63;;;2.55;;
50128;SDS011;36026;45.478;9.224;2023-02-27T02:47:22;3.65;;;2.70;;
50128;SDS011;36026;45.478;9.224;2023-02-27T02:50:33;3.78;;;2.50;;
50128;SDS011;36026;45.478;9.224;2023-02-27T02:53:41;4.65;;;2.58;;
50128;SDS011;36026;45.478;9.224;2023-02-27T02:56:49;3.67;;;2.42;;
50128;SDS011;36026;45.478;9.224;2023-02-27T02:59:59;4.43;;;2.90;;
50128;SDS011;36026;45.478;9.224;2023-02-27T03:03:06;5.13;;;2.75;;
50128;SDS011;36026;45.478;9.224;2023-02-27T03:06:12;3.17;;;2.50;;
50128;SDS011;36026;45.478;9.224;2023-02-27T03:09:18;3.53;;;2.30;;
50128;SDS011;36026;45.478;9.224;2023-02-27T03:12:23;5.15;;;2.70;;
50128;SDS011;36026;45.478;9.224;2023-02-27T03:15:27;3.05;;;2.58;;
50128;SDS011;36026;45.478;9.224;2023-02-27T03:18:31;4.03;;;2.72;;
50128;SDS011;36026;45.478;9.224;2023-02-27T03:24:38;6.13;;;2.85;;
50128;SDS011;36026;45.478;9.224;2023-02-27T03:27:43;4.32;;;3.45;;
50128;SDS011;36026;45.478;9.224;2023-02-27T03:30:49;5.15;;;3.38;;
50128;SDS011;36026;45.478;9.224;2023-02-27T03:33:54;4.80;;;3.58;;
50128;SDS011;36026;45.478;9.224;2023-02-27T03:37:00;4.28;;;3.10;;
50128;SDS011;36026;45.478;9.224;2023-02-27T03:40:08;5.50;;;3.90;;
50128;SDS011;36026;45.478;9.224;2023-02-27T03:43:18;7.85;;;4.80;;
50128;SDS011;36026;45.478;9.224;2023-02-27T03:46:24;5.78;;;4.35;;
50128;SDS011;36026;45.478;9.224;2023-02-27T03:49:27;5.50;;;4.18;;
50128;SDS011;36026;45.478;9.224;2023-02-27T03:52:30;7.00;;;4.38;;
50128;SDS011;36026;45.478;9.224;2023-02-27T03:55:32;5.13;;;3.60;;
50128;SDS011;36026;45.478;9.224;2023-02-27T04:01:39;4.32;;;3.28;;
50128;SDS011;36026;45.478;9.224;2023-02-27T04:04:41;3.92;;;3.40;;
50128;SDS011;36026;45.478;9.224;2023-02-27T04:07:45;5.07;;;3.80;;
50128;SDS011;36026;45.478;9.224;2023-02-27T04:10:56;5.00;;;3.90;;
50128;SDS011;36026;45.478;9.224;2023-02-27T04:14:16;4.63;;;3.08;;
50128;SDS011;36026;45.478;9.224;2023-02-27T04:17:24;4.13;;;3.30;;
50128;SDS011;36026;45.478;9.224;2023-02-27T04:20:38;6.57;;;3.47;;
50128;SDS011;36026;45.478;9.224;2023-02-27T04:23:45;3.90;;;2.63;;
50128;SDS011;36026;45.478;9.224;2023-02-27T04:26:51;4.57;;;2.90;;
50128;SDS011;36026;45.478;9.224;2023-02-27T04:33:02;3.17;;;2.50;;
50128;SDS011;36026;45.478;9.224;2023-02-27T04:36:08;3.13;;;2.30;;
50128;SDS011;36026;45.478;9.224;2023-02-27T04:39:13;6.05;;;2.25;;
50128;SDS011;36026;45.478;9.224;2023-02-27T04:42:20;3.65;;;2.40;;
50128;SDS011;36026;45.478;9.224;2023-02-27T04:45:25;3.05;;;2.03;;
50128;SDS011;36026;45.478;9.224;2023-02-27T04:48:28;3.03;;;2.35;;
50128;SDS011;36026;45.478;9.224;2023-02-27T04:51:34;3.88;;;2.78;;
50128;SDS011;36026;45.478;9.224;2023-02-27T04:54:40;3.80;;;2.28;;
50128;SDS011;36026;45.478;9.224;2023-02-27T04:57:47;2.90;;;2.20;;
50128;SDS011;36026;45.478;9.224;2023-02-27T05:00:59;3.13;;;2.40;;
50128;SDS011;36026;45.478;9.224;2023-02-27T05:04:02;2.53;;;2.20;;
50128;SDS011;36026;45.478;9.224;2023-02-27T05:07:06;3.67;;;2.17;;
50128;SDS011;36026;45.478;9.224;2023-02-27T05:10:12;3.47;;;1.90;;
50128;SDS011;36026;45.478;9.224;2023-02-27T05:13:15;5.63;;;2.30;;
50128;SDS011;36026;45.478;9.224;2023-02-27T05:16:24;3.00;;;2.30;;
50128;SDS011;36026;45.478;9.224;2023-02-27T05:19:28;3.42;;;2.28;;
50128;SDS011;36026;45.478;9.224;2023-02-27T05:22:34;4.35;;;2.60;;
50128;SDS011;36026;45.478;9.224;2023-02-27T05:25:40;2.30;;;2.00;;
50128;SDS011;36026;45.478;9.224;2023-02-27T05:28:47;4.88;;;2.53;;
50128;SDS011;36026;45.478;9.224;2023-02-27T05:31:58;2.92;;;2.15;;
50128;SDS011;36026;45.478;9.224;2023-02-27T05:35:06;3.63;;;2.42;;
50128;SDS011;36026;45.478;9.224;2023-02-27T05:38:13;2.85;;;1.92;;
50128;SDS011;36026;45.478;9.224;2023-02-27T05:41:16;2.80;;;2.03;;
50128;SDS011;36026;45.478;9.224;2023-02-27T05:44:20;3.33;;;2.20;;
50128;SDS011;36026;45.478;9.224;2023-02-27T05:47:26;3.13;;;2.30;;
50128;SDS011;36026;45.478;9.224;2023-02-27T05:50:31;3.33;;;2.47;;
50128;SDS011;36026;45.478;9.224;2023-02-27T05:53:34;3.00;;;2.30;;
50128;SDS011;36026;45.478;9.224;2023-02-27T05:56:39;3.58;;;2.20;;
50128;SDS011;36026;45.478;9.224;2023-02-27T05:59:44;2.80;;;2.10;;
50128;SDS011;36026;45.478;9.224;2023-02-27T06:02:52;2.83;;;1.90;;
50128;SDS011;36026;45.478;9.224;2023-02-27T06:05:54;2.93;;;2.00;;
50128;SDS011;36026;45.478;9.224;2023-02-27T06:08:58;6.03;;;3.38;;
50128;SDS011;36026;45.478;9.224;2023-02-27T06:12:00;4.18;;;2.83;;
50128;SDS011;36026;45.478;9.224;2023-02-27T06:15:02;3.15;;;2.83;;
50128;SDS011;36026;45.478;9.224;2023-02-27T06:18:09;4.45;;;3.10;;
50128;SDS011;36026;45.478;9.224;2023-02-27T06:21:11;4.13;;;3.17;;
50128;SDS011;36026;45.478;9.224;2023-02-27T06:24:13;4.68;;;3.35;;
50128;SDS011;36026;45.478;9.224;2023-02-27T06:27:15;5.88;;;4.43;;
50128;SDS011;36026;45.478;9.224;2023-02-27T06:30:17;4.60;;;3.20;;
50128;SDS011;36026;45.478;9.224;2023-02-27T06:33:21;6.07;;;3.63;;
50128;SDS011;36026;45.478;9.224;2023-02-27T06:36:23;6.57;;;4.30;;
50128;SDS011;36026;45.478;9.224;2023-02-27T06:39:24;6.07;;;3.55;;
50128;SDS011;36026;45.478;9.224;2023-02-27T06:42:27;5.35;;;3.70;;
50128;SDS011;36026;45.478;9.224;2023-02-27T06:45:29;5.43;;;3.60;;
50128;SDS011;36026;45.478;9.224;2023-02-27T06:48:32;6.35;;;4.25;;
50128;SDS011;36026;45.478;9.224;2023-02-27T06:51:34;6.73;;;4.27;;
50128;SDS011;36026;45.478;9.224;2023-02-27T06:54:36;5.20;;;3.63;;
50128;SDS011;36026;45.478;9.224;2023-02-27T06:57:38;7.05;;;4.18;;
50128;SDS011;36026;45.478;9.224;2023-02-27T07:00:40;11.63;;;4.75;;
50128;SDS011;36026;45.478;9.224;2023-02-27T07:03:43;6.40;;;4.30;;
50128;SDS011;36026;45.478;9.224;2023-02-27T07:06:45;8.15;;;4.85;;
50128;SDS011;36026;45.478;9.224;2023-02-27T07:09:47;8.93;;;5.38;;
50128;SDS011;36026;45.478;9.224;2023-02-27T07:12:49;10.98;;;5.00;;
50128;SDS011;36026;45.478;9.224;2023-02-27T07:15:52;7.22;;;4.80;;
50128;SDS011;36026;45.478;9.224;2023-02-27T07:18:55;7.60;;;4.90;;
50128;SDS011;36026;45.478;9.224;2023-02-27T07:21:58;4.90;;;3.38;;
50128;SDS011;36026;45.478;9.224;2023-02-27T07:24:59;5.57;;;3.72;;
50128;SDS011;36026;45.478;9.224;2023-02-27T07:28:01;5.43;;;3.75;;
50128;SDS011;36026;45.478;9.224;2023-02-27T07:31:04;6.07;;;3.60;;
50128;SDS011;36026;45.478;9.224;2023-02-27T07:34:07;3.95;;;2.80;;
50128;SDS011;36026;45.478;9.224;2023-02-27T07:37:10;5.80;;;3.00;;
50128;SDS011;36026;45.478;9.224;2023-02-27T07:40:12;3.95;;;2.70;;
50128;SDS011;36026;45.478;9.224;2023-02-27T07:43:14;3.83;;;2.58;;
50128;SDS011;36026;45.478;9.224;2023-02-27T07:46:16;3.92;;;2.40;;
50128;SDS011;36026;45.478;9.224;2023-02-27T07:49:19;4.10;;;2.35;;
50128;SDS011;36026;45.478;9.224;2023-02-27T07:52:21;3.30;;;2.30;;
50128;SDS011;36026;45.478;9.224;2023-02-27T07:55:27;2.47;;;2.20;;
50128;SDS011;36026;45.478;9.224;2023-02-27T07:58:29;5.75;;;2.65;;
50128;SDS011;36026;45.478;9.224;2023-02-27T08:01:31;4.05;;;2.78;;
50128;SDS011;36026;45.478;9.224;2023-02-27T08:04:34;3.70;;;2.75;;
50128;SDS011;36026;45.478;9.224;2023-02-27T08:07:36;7.73;;;3.07;;
50128;SDS011;36026;45.478;9.224;2023-02-27T08:10:38;5.70;;;2.85;;
50128;SDS011;36026;45.478;9.224;2023-02-27T08:13:40;4.72;;;3.17;;
50128;SDS011;36026;45.478;9.224;2023-02-27T08:16:45;3.65;;;3.05;;
50128;SDS011;36026;45.478;9.224;2023-02-27T08:19:49;4.97;;;3.00;;
50128;SDS011;36026;45.478;9.224;2023-02-27T08:22:54;4.43;;;3.20;;
50128;SDS011;36026;45.478;9.224;2023-02-27T08:25:56;6.65;;;3.25;;
50128;SDS011;36026;45.478;9.224;2023-02-27T08:28:58;5.30;;;3.30;;
50128;SDS011;36026;45.478;9.224;2023-02-27T08:32:00;3.70;;;3.30;;
50128;SDS011;36026;45.478;9.224;2023-02-27T08:35:03;5.70;;;3.60;;
50128;SDS011;36026;45.478;9.224;2023-02-27T08:38:06;6.43;;;4.35;;
50128;SDS011;36026;45.478;9.224;2023-02-27T08:41:07;6.45;;;4.80;;
50128;SDS011;36026;45.478;9.224;2023-02-27T08:44:09;6.53;;;4.25;;
50128;SDS011;36026;45.478;9.224;2023-02-27T08:47:12;7.50;;;4.30;;
50128;SDS011;36026;45.478;9.224;2023-02-27T08:50:15;5.13;;;3.67;;
50128;SDS011;36026;45.478;9.224;2023-02-27T08:53:17;7.70;;;4.75;;
50128;SDS011;36026;45.478;9.224;2023-02-27T08:56:19;5.93;;;4.10;;
50128;SDS011;36026;45.478;9.224;2023-02-27T08:59:24;8.05;;;4.57;;
50128;SDS011;36026;45.478;9.224;2023-02-27T09:02:25;7.20;;;4.70;;
50128;SDS011;36026;45.478;9.224;2023-02-27T09:05:29;7.45;;;4.50;;
50128;SDS011;36026;45.478;9.224;2023-02-27T09:08:34;7.65;;;4.80;;
50128;SDS011;36026;45.478;9.224;2023-02-27T09:11:36;6.80;;;4.10;;
50128;SDS011;36026;45.478;9.224;2023-02-27T09:14:37;6.78;;;4.55;;
50128;SDS011;36026;45.478;9.224;2023-02-27T09:17:39;6.45;;;4.63;;
50128;SDS011;36026;45.478;9.224;2023-02-27T09:20:43;8.00;;;4.15;;
50128;SDS011;36026;45.478;9.224;2023-02-27T09:23:45;6.97;;;4.23;;
50128;SDS011;36026;45.478;9.224;2023-02-27T09:26:47;5.40;;;4.30;;
50128;SDS011;36026;45.478;9.224;2023-02-27T09:29:49;5.75;;;4.10;;
50128;SDS011;36026;45.478;9.224;2023-02-27T09:32:54;5.75;;;4.70;;
50128;SDS011;36026;45.478;9.224;2023-02-27T09:35:57;6.40;;;3.83;;
50128;SDS011;36026;45.478;9.224;2023-02-27T09:38:59;6.63;;;4.60;;
50128;SDS011;36026;45.478;9.224;2023-02-27T09:42:02;6.47;;;3.75;;
50128;SDS011;36026;45.478;9.224;2023-02-27T09:48:11;6.82;;;3.80;;
50128;SDS011;36026;45.478;9.224;2023-02-27T09:51:17;4.55;;;3.53;;
50128;SDS011;36026;45.478;9.224;2023-02-27T09:54:20;6.88;;;4.07;;
50128;SDS011;36026;45.478;9.224;2023-02-27T09:57:24;6.43;;;4.28;;
50128;SDS011;36026;45.478;9.224;2023-02-27T10:00:44;6.72;;;4.53;;
50128;SDS011;36026;45.478;9.224;2023-02-27T10:04:00;6.05;;;4.15;;
50128;SDS011;36026;45.478;9.224;2023-02-27T10:07:14;4.68;;;3.75;;
50128;SDS011;36026;45.478;9.224;2023-02-27T10:10:20;9.00;;;4.32;;
50128;SDS011;36026;45.478;9.224;2023-02-27T10:13:32;5.65;;;3.97;;
50128;SDS011;36026;45.478;9.224;2023-02-27T10:16:39;6.00;;;3.90;;
50128;SDS011;36026;45.478;9.224;2023-02-27T10:19:43;5.95;;;4.22;;
50128;SDS011;36026;45.478;9.224;2023-02-27T10:22:54;8.30;;;3.95;;
50128;SDS011;36026;45.478;9.224;2023-02-27T10:25:59;4.97;;;3.65;;
50128;SDS011;36026;45.478;9.224;2023-02-27T10:29:02;7.82;;;4.03;;
50128;SDS011;36026;45.478;9.224;2023-02-27T10:32:22;7.28;;;3.78;;
50128;SDS011;36026;45.478;9.224;2023-02-27T10:35:29;8.38;;;4.10;;
50128;SDS011;36026;45.478;9.224;2023-02-27T10:38:48;7.47;;;4.07;;
50128;SDS011;36026;45.478;9.224;2023-02-27T10:41:51;8.60;;;4.40;;
50128;SDS011;36026;45.478;9.224;2023-02-27T10:44:56;10.88;;;4.57;;
50128;SDS011;36026;45.478;9.224;2023-02-27T10:47:59;6.10;;;4.43;;
50128;SDS011;36026;45.478;9.224;2023-02-27T10:51:19;9.45;;;4.45;;
50128;SDS011;36026;45.478;9.224;2023-02-27T10:54:29;6.10;;;4.32;;
50128;SDS011;36026;45.478;9.224;2023-02-27T10:57:35;5.88;;;4.93;;
50128;SDS011;36026;45.478;9.224;2023-02-27T11:01:49;7.57;;;4.50;;
50128;SDS011;36026;45.478;9.224;2023-02-27T11:04:36;7.03;;;4.38;;
50128;SDS011;36026;45.478;9.224;2023-02-27T11:07:53;7.55;;;4.63;;
50128;SDS011;36026;45.478;9.224;2023-02-27T11:10:58;4.95;;;4.00;;
50128;SDS011;36026;45.478;9.224;2023-02-27T11:14:14;7.13;;;4.25;;
50128;SDS011;36026;45.478;9.224;2023-02-27T11:17:21;7.20;;;4.53;;
50128;SDS011;36026;45.478;9.224;2023-02-27T11:20:31;7.38;;;4.40;;
50128;SDS011;36026;45.478;9.224;2023-02-27T11:27:18;5.72;;;4.38;;
50128;SDS011;36026;45.478;9.224;2023-02-27T11:30:23;6.05;;;3.80;;
50128;SDS011;36026;45.478;9.224;2023-02-27T11:33:39;5.45;;;3.80;;
50128;SDS011;36026;45.478;9.224;2023-02-27T11:36:50;4.32;;;3.38;;
50128;SDS011;36026;45.478;9.224;2023-02-27T11:39:55;5.68;;;3.70;;
50128;SDS011;36026;45.478;9.224;2023-02-27T11:43:15;4.47;;;2.90;;
50128;SDS011;36026;45.478;9.224;2023-02-27T11:46:21;3.10;;;2.80;;
50128;SDS011;36026;45.478;9.224;2023-02-27T11:49:26;7.00;;;3.90;;
50128;SDS011;36026;45.478;9.224;2023-02-27T11:52:32;6.18;;;3.25;;
50128;SDS011;36026;45.478;9.224;2023-02-27T11:55:41;4.45;;;3.05;;
50128;SDS011;36026;45.478;9.224;2023-02-27T11:58:47;3.85;;;2.50;;
50128;SDS011;36026;45.478;9.224;2023-02-27T12:01:53;3.53;;;2.20;;
50128;SDS011;36026;45.478;9.224;2023-02-27T12:04:58;5.68;;;2.60;;
50128;SDS011;36026;45.478;9.224;2023-02-27T12:08:04;5.20;;;2.90;;
50128;SDS011;36026;45.478;9.224;2023-02-27T12:11:12;4.38;;;2.90;;
50128;SDS011;36026;45.478;9.224;2023-02-27T12:14:20;5.40;;;3.20;;
50128;SDS011;36026;45.478;9.224;2023-02-27T12:17:25;4.13;;;2.80;;
50128;SDS011;36026;45.478;9.224;2023-02-27T12:20:31;3.83;;;2.63;;
50128;SDS011;36026;45.478;9.224;2023-02-27T12:23:36;6.05;;;2.72;;
50128;SDS011;36026;45.478;9.224;2023-02-27T12:26:41;9.27;;;4.88;;
50128;SDS011;36026;45.478;9.224;2023-02-27T12:29:46;5.25;;;3.75;;
50128;SDS011;36026;45.478;9.224;2023-02-27T12:32:52;3.72;;;2.85;;
50128;SDS011;36026;45.478;9.224;2023-02-27T12:35:58;5.45;;;3.20;;
50128;SDS011;36026;45.478;9.224;2023-02-27T12:39:26;6.13;;;3.13;;
50128;SDS011;36026;45.478;9.224;2023-02-27T12:42:42;4.30;;;2.85;;
50128;SDS011;36026;45.478;9.224;2023-02-27T12:46:03;4.38;;;2.75;;
50128;SDS011;36026;45.478;9.224;2023-02-27T12:49:40;3.20;;;2.53;;
50128;SDS011;36026;45.478;9.224;2023-02-27T12:52:49;5.72;;;3.50;;
50128;SDS011;36026;45.478;9.224;2023-02-27T12:56:02;4.93;;;3.33;;
50128;SDS011;36026;45.478;9.224;2023-02-27T12:59:08;4.65;;;2.97;;
50128;SDS011;36026;45.478;9.224;2023-02-27T13:08:50;5.68;;;2.63;;
50128;SDS011;36026;45.478;9.224;2023-02-27T13:12:00;3.72;;;2.45;;
50128;SDS011;36026;45.478;9.224;2023-02-27T13:15:11;3.63;;;2.33;;
50128;SDS011;36026;45.478;9.224;2023-02-27T13:18:25;5.03;;;2.50;;
50128;SDS011;36026;45.478;9.224;2023-02-27T13:21:35;2.60;;;2.08;;
50128;SDS011;36026;45.478;9.224;2023-02-27T13:24:40;3.38;;;2.50;;
50128;SDS011;36026;45.478;9.224;2023-02-27T13:27:45;4.30;;;2.40;;
50128;SDS011;36026;45.478;9.224;2023-02-27T13:30:51;3.72;;;2.33;;
50128;SDS011;36026;45.478;9.224;2023-02-27T13:34:03;2.83;;;2.10;;
50128;SDS011;36026;45.478;9.224;2023-02-27T13:37:15;3.03;;;2.38;;
50128;SDS011;36026;45.478;9.224;2023-02-27T13:43:54;5.05;;;2.55;;
50128;SDS011;36026;45.478;9.224;2023-02-27T13:46:57;7.50;;;2.47;;
50128;SDS011;36026;45.478;9.224;2023-02-27T13:50:49;5.93;;;2.13;;
50128;SDS011;36026;45.478;9.224;2023-02-27T13:54:05;3.07;;;2.03;;
50128;SDS011;36026;45.478;9.224;2023-02-27T13:57:17;4.95;;;2.10;;
50128;SDS011;36026;45.478;9.224;2023-02-27T14:00:22;4.90;;;2.30;;
50128;SDS011;36026;45.478;9.224;2023-02-27T14:03:25;4.78;;;2.13;;
50128;SDS011;36026;45.478;9.224;2023-02-27T14:06:30;3.03;;;2.10;;
50128;SDS011;36026;45.478;9.224;2023-02-27T14:09:33;3.80;;;2.20;;
50128;SDS011;36026;45.478;9.224;2023-02-27T14:12:37;3.53;;;2.28;;
50128;SDS011;36026;45.478;9.224;2023-02-27T14:15:48;5.68;;;2.40;;
50128;SDS011;36026;45.478;9.224;2023-02-27T14:18:55;3.20;;;2.42;;
50128;SDS011;36026;45.478;9.224;2023-02-27T14:21:59;3.45;;;2.45;;
50128;SDS011;36026;45.478;9.224;2023-02-27T14:25:10;2.60;;;2.15;;
50128;SDS011;36026;45.478;9.224;2023-02-27T14:28:19;6.78;;;3.03;;
50128;SDS011;36026;45.478;9.224;2023-02-27T14:31:24;4.65;;;2.80;;
50128;SDS011;36026;45.478;9.224;2023-02-27T14:34:31;4.05;;;2.50;;
50128;SDS011;36026;45.478;9.224;2023-02-27T14:37:37;4.22;;;3.00;;
50128;SDS011;36026;45.478;9.224;2023-02-27T14:40:41;4.63;;;2.53;;
50128;SDS011;36026;45.478;9.224;2023-02-27T14:43:47;6.07;;;2.45;;
50128;SDS011;36026;45.478;9.224;2023-02-27T14:46:55;5.88;;;2.65;;
50128;SDS011;36026;45.478;9.224;2023-02-27T14:50:19;4.45;;;2.50;;
50128;SDS011;36026;45.478;9.224;2023-02-27T14:53:27;5.35;;;2.42;;
50128;SDS011;36026;45.478;9.224;2023-02-27T14:56:29;3.55;;;2.35;;
50128;SDS011;36026;45.478;9.224;2023-02-27T14:59:33;9.00;;;2.83;;
50128;SDS011;36026;45.478;9.224;2023-02-27T15:02:41;3.05;;;2.50;;
50128;SDS011;36026;45.478;9.224;2023-02-27T15:09:12;3.03;;;2.40;;
50128;SDS011;36026;45.478;9.224;2023-02-27T15:12:21;3.45;;;2.80;;
50128;SDS011;36026;45.478;9.224;2023-02-27T15:15:23;3.88;;;2.58;;
50128;SDS011;36026;45.478;9.224;2023-02-27T15:18:25;4.65;;;3.00;;
50128;SDS011;36026;45.478;9.224;2023-02-27T15:21:29;5.40;;;2.90;;
50128;SDS011;36026;45.478;9.224;2023-02-27T15:24:37;4.18;;;2.80;;
50128;SDS011;36026;45.478;9.224;2023-02-27T15:27:40;4.30;;;2.58;;
50128;SDS011;36026;45.478;9.224;2023-02-27T15:30:46;5.03;;;2.30;;
50128;SDS011;36026;45.478;9.224;2023-02-27T15:33:48;8.43;;;2.53;;
50128;SDS011;36026;45.478;9.224;2023-02-27T15:36:51;3.00;;;2.45;;
50128;SDS011;36026;45.478;9.224;2023-02-27T15:42:58;3.85;;;2.88;;
50128;SDS011;36026;45.478;9.224;2023-02-27T15:46:01;4.43;;;3.10;;
50128;SDS011;36026;45.478;9.224;2023-02-27T15:49:02;3.33;;;2.53;;
50128;SDS011;36026;45.478;9.224;2023-02-27T15:52:11;4.60;;;2.75;;
50128;SDS011;36026;45.478;9.224;2023-02-27T15:55:20;5.82;;;2.80;;
50128;SDS011;36026;45.478;9.224;2023-02-27T15:58:25;5.28;;;2.78;;
50128;SDS011;36026;45.478;9.224;2023-02-27T16:04:31;3.63;;;2.80;;
50128;SDS011;36026;45.478;9.224;2023-02-27T16:07:55;3.63;;;2.67;;
50128;SDS011;36026;45.478;9.224;2023-02-27T16:11:04;4.18;;;2.80;;
50128;SDS011;36026;45.478;9.224;2023-02-27T16:17:41;4.80;;;2.65;;
50128;SDS011;36026;45.478;9.224;2023-02-27T16:21:09;4.72;;;3.17;;
50128;SDS011;36026;45.478;9.224;2023-02-27T16:24:18;4.65;;;2.70;;
50128;SDS011;36026;45.478;9.224;2023-02-27T16:27:23;4.40;;;3.42;;
50128;SDS011;36026;45.478;9.224;2023-02-27T16:30:25;5.10;;;2.95;;
50128;SDS011;36026;45.478;9.224;2023-02-27T16:33:29;7.35;;;3.33;;
50128;SDS011;36026;45.478;9.224;2023-02-27T16:36:51;4.55;;;3.53;;
50128;SDS011;36026;45.478;9.224;2023-02-27T16:43:53;4.05;;;2.97;;
50128;SDS011;36026;45.478;9.224;2023-02-27T16:46:55;4.82;;;3.10;;
50128;SDS011;36026;45.478;9.224;2023-02-27T16:49:58;4.18;;;2.90;;
50128;SDS011;36026;45.478;9.224;2023-02-27T16:53:00;4.07;;;3.25;;
50128;SDS011;36026;45.478;9.224;2023-02-27T16:56:02;5.40;;;3.20;;
50128;SDS011;36026;45.478;9.224;2023-02-27T16:59:10;4.97;;;2.97;;
50128;SDS011;36026;45.478;9.224;2023-02-27T17:02:27;3.65;;;2.75;;
50128;SDS011;36026;45.478;9.224;2023-02-27T17:05:29;3.88;;;3.20;;
50128;SDS011;36026;45.478;9.224;2023-02-27T17:08:31;5.80;;;3.17;;
50128;SDS011;36026;45.478;9.224;2023-02-27T17:11:33;7.43;;;3.40;;
50128;SDS011;36026;45.478;9.224;2023-02-27T17:14:36;5.18;;;3.05;;
50128;SDS011;36026;45.478;9.224;2023-02-27T17:17:38;4.40;;;3.03;;
50128;SDS011;36026;45.478;9.224;2023-02-27T17:20:40;6.55;;;3.40;;
50128;SDS011;36026;45.478;9.224;2023-02-27T17:23:42;6.63;;;3.13;;
50128;SDS011;36026;45.478;9.224;2023-02-27T17:26:59;6.22;;;3.45;;
50128;SDS011;36026;45.478;9.224;2023-02-27T17:30:09;5.28;;;3.40;;
50128;SDS011;36026;45.478;9.224;2023-02-27T17:33:12;5.82;;;3.92;;
50128;SDS011;36026;45.478;9.224;2023-02-27T17:40:14;5.25;;;3.78;;
50128;SDS011;36026;45.478;9.224;2023-02-27T17:43:16;5.15;;;3.47;;
50128;SDS011;36026;45.478;9.224;2023-02-27T17:46:20;6.30;;;3.60;;
50128;SDS011;36026;45.478;9.224;2023-02-27T17:49:22;4.53;;;3.70;;
50128;SDS011;36026;45.478;9.224;2023-02-27T17:52:26;4.88;;;3.58;;
50128;SDS011;36026;45.478;9.224;2023-02-27T17:55:28;5.80;;;3.95;;
50128;SDS011;36026;45.478;9.224;2023-02-27T17:58:30;5.75;;;4.15;;
50128;SDS011;36026;45.478;9.224;2023-02-27T18:01:36;8.07;;;3.97;;
50128;SDS011;36026;45.478;9.224;2023-02-27T18:04:38;6.80;;;3.85;;
50128;SDS011;36026;45.478;9.224;2023-02-27T18:07:41;11.53;;;4.10;;
50128;SDS011;36026;45.478;9.224;2023-02-27T18:10:45;6.22;;;3.85;;
50128;SDS011;36026;45.478;9.224;2023-02-27T18:13:56;7.88;;;4.40;;
50128;SDS011;36026;45.478;9.224;2023-02-27T18:17:01;6.45;;;4.18;;
50128;SDS011;36026;45.478;9.224;2023-02-27T18:20:13;6.97;;;4.20;;
50128;SDS011;36026;45.478;9.224;2023-02-27T18:23:15;5.60;;;4.32;;
50128;SDS011;36026;45.478;9.224;2023-02-27T18:26:18;5.53;;;4.07;;
50128;SDS011;36026;45.478;9.224;2023-02-27T18:29:21;6.03;;;4.28;;
50128;SDS011;36026;45.478;9.224;2023-02-27T18:32:24;9.88;;;4.45;;
50128;SDS011;36026;45.478;9.224;2023-02-27T18:35:29;6.22;;;4.30;;
50128;SDS011;36026;45.478;9.224;2023-02-27T18:38:31;6.15;;;4.55;;
50128;SDS011;36026;45.478;9.224;2023-02-27T18:41:33;6.75;;;4.30;;
50128;SDS011;36026;45.478;9.224;2023-02-27T18:44:36;7.38;;;4.88;;
50128;SDS011;36026;45.478;9.224;2023-02-27T18:50:43;6.53;;;4.78;;
50128;SDS011;36026;45.478;9.224;2023-02-27T18:53:46;7.53;;;5.25;;
50128;SDS011;36026;45.478;9.224;2023-02-27T18:56:49;10.90;;;5.15;;
50128;SDS011;36026;45.478;9.224;2023-02-27T18:59:57;8.80;;;5.38;;
50128;SDS011;36026;45.478;9.224;2023-02-27T19:03:00;8.93;;;5.57;;
50128;SDS011;36026;45.478;9.224;2023-02-27T19:06:02;9.23;;;5.18;;
50128;SDS011;36026;45.478;9.224;2023-02-27T19:09:05;10.45;;;6.30;;
50128;SDS011;36026;45.478;9.224;2023-02-27T19:12:07;9.98;;;6.70;;
50128;SDS011;36026;45.478;9.224;2023-02-27T19:15:12;8.82;;;6.13;;
50128;SDS011;36026;45.478;9.224;2023-02-27T19:18:16;10.02;;;6.47;;
50128;SDS011;36026;45.478;9.224;2023-02-27T19:21:19;11.32;;;6.68;;
50128;SDS011;36026;45.478;9.224;2023-02-27T19:24:21;10.20;;;6.35;;
50128;SDS011;36026;45.478;9.224;2023-02-27T19:27:37;10.18;;;6.50;;
50128;SDS011;36026;45.478;9.224;2023-02-27T19:30:40;9.40;;;6.10;;
50128;SDS011;36026;45.478;9.224;2023-02-27T19:33:43;8.90;;;6.93;;
50128;SDS011;36026;45.478;9.224;2023-02-27T19:36:45;11.30;;;6.93;;
50128;SDS011;36026;45.478;9.224;2023-02-27T19:39:47;7.68;;;6.13;;
50128;SDS011;36026;45.478;9.224;2023-02-27T19:43:14;9.23;;;6.53;;
50128;SDS011;36026;45.478;9.224;2023-02-27T19:46:18;9.82;;;6.70;;
50128;SDS011;36026;45.478;9.224;2023-02-27T19:49:28;14.55;;;6.93;;
50128;SDS011;36026;45.478;9.224;2023-02-27T19:52:30;11.38;;;7.30;;
50128;SDS011;36026;45.478;9.224;2023-02-27T19:55:32;9.95;;;6.90;;